sensor_id;sensor_type;location;lat;lon;timestamp;P1;durP1;ratioP1;P2;durP2;ratioP2
18296;SDS011;18066;52.106;5.534;2023-04-01T00:00:48;10.23;;;7.57;;
18296;SDS011;18066;52.106;5.534;2023-04-01T00:03:17;11.27;;;7.87;;
18296;SDS011;18066;52.106;5.534;2023-04-01T00:05:44;14.40;;;7.57;;
18296;SDS011;18066;52.106;5.534;2023-04-01T00:08:11;13.57;;;9.17;;
18296;SDS011;18066;52.106;5.534;2023-04-01T00:10:40;13.83;;;8.63;;
18296;SDS011;18066;52.106;5.534;2023-04-01T00:13:07;14.57;;;9.80;;
18296;SDS011;18066;52.106;5.534;2023-04-01T00:15:34;18.13;;;9.87;;
18296;SDS011;18066;52.106;5.534;2023-04-01T00:18:01;17.30;;;10.17;;
18296;SDS011;18066;52.106;5.534;2023-04-01T00:20:29;17.10;;;10.50;;
18296;SDS011;18066;52.106;5.534;2023-04-01T00:22:56;18.93;;;11.53;;
18296;SDS011;18066;52.106;5.534;2023-04-01T00:25:23;19.17;;;10.40;;
18296;SDS011;18066;52.106;5.534;2023-04-01T00:27:52;16.00;;;9.77;;
18296;SDS011;18066;52.106;5.534;2023-04-01T00:30:19;17.83;;;9.80;;
18296;SDS011;18066;52.106;5.534;2023-04-01T00:32:45;18.07;;;10.10;;
18296;SDS011;18066;52.106;5.534;2023-04-01T00:35:12;16.33;;;9.70;;
18296;SDS011;18066;52.106;5.534;2023-04-01T00:37:39;19.43;;;10.37;;
18296;SDS011;18066;52.106;5.534;2023-04-01T00:40:06;27.17;;;12.40;;
18296;SDS011;18066;52.106;5.534;2023-04-01T00:42:37;26.83;;;10.87;;
18296;SDS011;18066;52.106;5.534;2023-04-01T00:47:52;26.73;;;12.17;;
18296;SDS011;18066;52.106;5.534;2023-04-01T00:50:19;30.07;;;13.50;;
18296;SDS011;18066;52.106;5.534;2023-04-01T00:52:47;30.87;;;13.37;;
18296;SDS011;18066;52.106;5.534;2023-04-01T00:55:15;32.93;;;14.23;;
18296;SDS011;18066;52.106;5.534;2023-04-01T00:57:44;35.20;;;15.27;;
18296;SDS011;18066;52.106;5.534;2023-04-01T01:00:14;26.83;;;13.97;;
18296;SDS011;18066;52.106;5.534;2023-04-01T01:02:44;37.60;;;16.00;;
18296;SDS011;18066;52.106;5.534;2023-04-01T01:05:12;37.43;;;15.17;;
18296;SDS011;18066;52.106;5.534;2023-04-01T01:07:41;29.33;;;14.93;;
18296;SDS011;18066;52.106;5.534;2023-04-01T01:10:19;25.93;;;14.97;;
18296;SDS011;18066;52.106;5.534;2023-04-01T01:12:51;28.80;;;14.97;;
18296;SDS011;18066;52.106;5.534;2023-04-01T01:15:29;25.13;;;14.63;;
18296;SDS011;18066;52.106;5.534;2023-04-01T01:18:03;33.17;;;15.20;;
18296;SDS011;18066;52.106;5.534;2023-04-01T01:20:39;28.10;;;13.97;;
18296;SDS011;18066;52.106;5.534;2023-04-01T01:23:38;33.67;;;16.57;;
18296;SDS011;18066;52.106;5.534;2023-04-01T01:26:37;28.37;;;15.73;;
18296;SDS011;18066;52.106;5.534;2023-04-01T01:29:13;37.17;;;16.20;;
18296;SDS011;18066;52.106;5.534;2023-04-01T01:31:53;27.57;;;15.10;;
18296;SDS011;18066;52.106;5.534;2023-04-01T01:34:30;35.60;;;14.27;;
18296;SDS011;18066;52.106;5.534;2023-04-01T01:37:05;35.80;;;14.63;;
18296;SDS011;18066;52.106;5.534;2023-04-01T01:39:36;28.33;;;14.27;;
18296;SDS011;18066;52.106;5.534;2023-04-01T01:42:05;30.67;;;13.77;;
18296;SDS011;18066;52.106;5.534;2023-04-01T01:44:35;25.97;;;12.47;;
18296;SDS011;18066;52.106;5.534;2023-04-01T01:47:04;25.93;;;12.37;;
18296;SDS011;18066;52.106;5.534;2023-04-01T01:49:32;25.23;;;12.60;;
18296;SDS011;18066;52.106;5.534;2023-04-01T01:52:01;25.80;;;11.80;;
18296;SDS011;18066;52.106;5.534;2023-04-01T01:54:30;24.07;;;11.00;;
18296;SDS011;18066;52.106;5.534;2023-04-01T01:56:59;24.13;;;11.63;;
18296;SDS011;18066;52.106;5.534;2023-04-01T01:59:31;22.87;;;10.70;;
18296;SDS011;18066;52.106;5.534;2023-04-01T02:02:00;18.50;;;10.10;;
18296;SDS011;18066;52.106;5.534;2023-04-01T02:04:33;20.40;;;10.40;;
18296;SDS011;18066;52.106;5.534;2023-04-01T02:07:01;19.17;;;10.50;;
18296;SDS011;18066;52.106;5.534;2023-04-01T02:09:32;19.27;;;9.80;;
18296;SDS011;18066;52.106;5.534;2023-04-01T02:12:00;21.80;;;10.03;;
18296;SDS011;18066;52.106;5.534;2023-04-01T02:14:31;19.27;;;10.50;;
18296;SDS011;18066;52.106;5.534;2023-04-01T02:17:06;22.13;;;11.47;;
18296;SDS011;18066;52.106;5.534;2023-04-01T02:19:36;18.57;;;10.20;;
18296;SDS011;18066;52.106;5.534;2023-04-01T02:22:06;23.63;;;11.13;;
18296;SDS011;18066;52.106;5.534;2023-04-01T02:24:38;18.23;;;9.87;;
18296;SDS011;18066;52.106;5.534;2023-04-01T02:27:08;20.00;;;10.60;;
18296;SDS011;18066;52.106;5.534;2023-04-01T02:29:35;15.73;;;9.33;;
18296;SDS011;18066;52.106;5.534;2023-04-01T02:32:03;19.13;;;9.87;;
18296;SDS011;18066;52.106;5.534;2023-04-01T02:34:32;22.17;;;10.97;;
18296;SDS011;18066;52.106;5.534;2023-04-01T02:36:59;18.97;;;9.27;;
18296;SDS011;18066;52.106;5.534;2023-04-01T02:39:27;16.43;;;8.50;;
18296;SDS011;18066;52.106;5.534;2023-04-01T02:41:55;17.30;;;8.70;;
18296;SDS011;18066;52.106;5.534;2023-04-01T02:44:22;14.67;;;6.90;;
18296;SDS011;18066;52.106;5.534;2023-04-01T02:46:49;13.10;;;6.70;;
18296;SDS011;18066;52.106;5.534;2023-04-01T02:49:16;11.07;;;6.27;;
18296;SDS011;18066;52.106;5.534;2023-04-01T02:51:43;12.87;;;6.67;;
18296;SDS011;18066;52.106;5.534;2023-04-01T02:54:09;11.10;;;6.47;;
18296;SDS011;18066;52.106;5.534;2023-04-01T02:56:36;10.27;;;6.57;;
18296;SDS011;18066;52.106;5.534;2023-04-01T02:59:05;13.37;;;7.47;;
18296;SDS011;18066;52.106;5.534;2023-04-01T03:01:31;12.93;;;7.17;;
18296;SDS011;18066;52.106;5.534;2023-04-01T03:03:58;15.50;;;7.80;;
18296;SDS011;18066;52.106;5.534;2023-04-01T03:06:25;11.93;;;7.30;;
18296;SDS011;18066;52.106;5.534;2023-04-01T03:08:52;12.17;;;7.40;;
18296;SDS011;18066;52.106;5.534;2023-04-01T03:11:19;9.90;;;6.23;;
18296;SDS011;18066;52.106;5.534;2023-04-01T03:13:46;10.47;;;6.67;;
18296;SDS011;18066;52.106;5.534;2023-04-01T03:16:15;11.07;;;6.37;;
18296;SDS011;18066;52.106;5.534;2023-04-01T03:18:42;11.07;;;6.53;;
18296;SDS011;18066;52.106;5.534;2023-04-01T03:21:16;10.93;;;6.90;;
18296;SDS011;18066;52.106;5.534;2023-04-01T03:23:45;8.80;;;6.13;;
18296;SDS011;18066;52.106;5.534;2023-04-01T03:26:11;12.83;;;7.40;;
18296;SDS011;18066;52.106;5.534;2023-04-01T03:28:38;8.50;;;5.73;;
18296;SDS011;18066;52.106;5.534;2023-04-01T03:31:06;9.97;;;6.53;;
18296;SDS011;18066;52.106;5.534;2023-04-01T03:33:34;8.73;;;5.57;;
18296;SDS011;18066;52.106;5.534;2023-04-01T03:36:01;8.83;;;5.70;;
18296;SDS011;18066;52.106;5.534;2023-04-01T03:38:31;8.63;;;5.87;;
18296;SDS011;18066;52.106;5.534;2023-04-01T03:40:58;9.97;;;5.90;;
18296;SDS011;18066;52.106;5.534;2023-04-01T03:43:25;10.97;;;6.70;;
18296;SDS011;18066;52.106;5.534;2023-04-01T03:45:52;8.63;;;6.50;;
18296;SDS011;18066;52.106;5.534;2023-04-01T03:48:21;9.90;;;6.50;;
18296;SDS011;18066;52.106;5.534;2023-04-01T03:50:49;8.70;;;5.93;;
18296;SDS011;18066;52.106;5.534;2023-04-01T03:53:16;7.97;;;5.53;;
18296;SDS011;18066;52.106;5.534;2023-04-01T03:55:43;9.77;;;5.90;;
18296;SDS011;18066;52.106;5.534;2023-04-01T03:58:10;8.27;;;5.77;;
18296;SDS011;18066;52.106;5.534;2023-04-01T04:00:37;9.30;;;5.83;;
18296;SDS011;18066;52.106;5.534;2023-04-01T04:03:05;9.27;;;5.80;;
18296;SDS011;18066;52.106;5.534;2023-04-01T04:05:32;8.07;;;5.70;;
18296;SDS011;18066;52.106;5.534;2023-04-01T04:08:00;8.57;;;5.93;;
18296;SDS011;18066;52.106;5.534;2023-04-01T04:10:27;10.03;;;6.17;;
18296;SDS011;18066;52.106;5.534;2023-04-01T04:12:54;10.97;;;6.93;;
18296;SDS011;18066;52.106;5.534;2023-04-01T04:15:22;9.77;;;6.40;;
18296;SDS011;18066;52.106;5.534;2023-04-01T04:17:49;10.67;;;7.63;;
18296;SDS011;18066;52.106;5.534;2023-04-01T04:20:16;12.50;;;7.37;;
18296;SDS011;18066;52.106;5.534;2023-04-01T04:22:43;10.77;;;7.73;;
18296;SDS011;18066;52.106;5.534;2023-04-01T04:25:11;11.60;;;7.47;;
18296;SDS011;18066;52.106;5.534;2023-04-01T04:27:38;10.17;;;7.53;;
18296;SDS011;18066;52.106;5.534;2023-04-01T04:30:05;10.47;;;6.93;;
18296;SDS011;18066;52.106;5.534;2023-04-01T04:32:34;12.13;;;7.87;;
18296;SDS011;18066;52.106;5.534;2023-04-01T04:35:01;11.83;;;7.53;;
18296;SDS011;18066;52.106;5.534;2023-04-01T04:37:27;10.83;;;7.47;;
18296;SDS011;18066;52.106;5.534;2023-04-01T04:39:54;13.13;;;7.33;;
18296;SDS011;18066;52.106;5.534;2023-04-01T04:42:23;8.80;;;6.63;;
18296;SDS011;18066;52.106;5.534;2023-04-01T04:44:50;9.97;;;7.17;;
18296;SDS011;18066;52.106;5.534;2023-04-01T04:47:16;16.53;;;7.97;;
18296;SDS011;18066;52.106;5.534;2023-04-01T04:49:43;10.83;;;7.67;;
18296;SDS011;18066;52.106;5.534;2023-04-01T04:52:10;13.37;;;8.33;;
18296;SDS011;18066;52.106;5.534;2023-04-01T04:54:37;14.63;;;8.57;;
18296;SDS011;18066;52.106;5.534;2023-04-01T04:57:04;13.03;;;8.20;;
18296;SDS011;18066;52.106;5.534;2023-04-01T04:59:32;15.00;;;8.97;;
18296;SDS011;18066;52.106;5.534;2023-04-01T05:01:59;15.67;;;8.67;;
18296;SDS011;18066;52.106;5.534;2023-04-01T05:04:26;16.30;;;9.40;;
18296;SDS011;18066;52.106;5.534;2023-04-01T05:06:53;16.30;;;9.40;;
18296;SDS011;18066;52.106;5.534;2023-04-01T05:09:20;14.80;;;9.50;;
18296;SDS011;18066;52.106;5.534;2023-04-01T05:11:47;14.47;;;8.77;;
18296;SDS011;18066;52.106;5.534;2023-04-01T05:14:14;15.70;;;8.60;;
18296;SDS011;18066;52.106;5.534;2023-04-01T05:16:42;16.20;;;9.37;;
18296;SDS011;18066;52.106;5.534;2023-04-01T05:19:09;14.33;;;9.00;;
18296;SDS011;18066;52.106;5.534;2023-04-01T05:21:36;15.33;;;8.87;;
18296;SDS011;18066;52.106;5.534;2023-04-01T05:24:03;14.13;;;8.63;;
18296;SDS011;18066;52.106;5.534;2023-04-01T05:26:33;14.67;;;8.57;;
18296;SDS011;18066;52.106;5.534;2023-04-01T05:29:01;13.93;;;8.13;;
18296;SDS011;18066;52.106;5.534;2023-04-01T05:31:28;14.13;;;7.90;;
18296;SDS011;18066;52.106;5.534;2023-04-01T05:33:57;14.80;;;7.70;;
18296;SDS011;18066;52.106;5.534;2023-04-01T05:36:23;11.57;;;6.50;;
18296;SDS011;18066;52.106;5.534;2023-04-01T05:38:50;13.57;;;7.03;;
18296;SDS011;18066;52.106;5.534;2023-04-01T05:41:20;10.97;;;6.13;;
18296;SDS011;18066;52.106;5.534;2023-04-01T05:43:47;9.57;;;5.67;;
18296;SDS011;18066;52.106;5.534;2023-04-01T05:46:14;10.30;;;5.80;;
18296;SDS011;18066;52.106;5.534;2023-04-01T05:48:40;9.83;;;6.47;;
18296;SDS011;18066;52.106;5.534;2023-04-01T05:51:12;8.67;;;5.67;;
18296;SDS011;18066;52.106;5.534;2023-04-01T05:53:40;9.13;;;6.13;;
18296;SDS011;18066;52.106;5.534;2023-04-01T05:56:07;9.03;;;5.70;;
18296;SDS011;18066;52.106;5.534;2023-04-01T05:58:34;8.33;;;5.33;;
18296;SDS011;18066;52.106;5.534;2023-04-01T06:01:02;11.80;;;6.70;;
18296;SDS011;18066;52.106;5.534;2023-04-01T06:03:29;10.33;;;5.10;;
18296;SDS011;18066;52.106;5.534;2023-04-01T06:05:56;7.60;;;4.53;;
18296;SDS011;18066;52.106;5.534;2023-04-01T06:08:24;9.23;;;5.20;;
18296;SDS011;18066;52.106;5.534;2023-04-01T06:11:01;6.63;;;4.40;;
18296;SDS011;18066;52.106;5.534;2023-04-01T06:13:38;6.13;;;3.70;;
18296;SDS011;18066;52.106;5.534;2023-04-01T06:16:20;5.07;;;3.37;;
18296;SDS011;18066;52.106;5.534;2023-04-01T06:19:04;4.50;;;3.30;;
18296;SDS011;18066;52.106;5.534;2023-04-01T06:21:48;6.63;;;3.27;;
18296;SDS011;18066;52.106;5.534;2023-04-01T06:24:41;6.33;;;3.10;;
18296;SDS011;18066;52.106;5.534;2023-04-01T06:27:24;5.23;;;3.57;;
18296;SDS011;18066;52.106;5.534;2023-04-01T06:30:02;5.57;;;3.53;;
18296;SDS011;18066;52.106;5.534;2023-04-01T06:32:48;5.10;;;3.57;;
18296;SDS011;18066;52.106;5.534;2023-04-01T06:35:27;5.70;;;3.43;;
18296;SDS011;18066;52.106;5.534;2023-04-01T06:38:10;6.70;;;3.70;;
18296;SDS011;18066;52.106;5.534;2023-04-01T06:41:11;11.37;;;4.17;;
18296;SDS011;18066;52.106;5.534;2023-04-01T06:43:59;4.60;;;3.47;;
18296;SDS011;18066;52.106;5.534;2023-04-01T06:46:39;6.07;;;4.07;;
18296;SDS011;18066;52.106;5.534;2023-04-01T06:49:17;6.30;;;4.20;;
18296;SDS011;18066;52.106;5.534;2023-04-01T06:51:55;5.63;;;3.70;;
18296;SDS011;18066;52.106;5.534;2023-04-01T06:54:28;6.17;;;3.93;;
18296;SDS011;18066;52.106;5.534;2023-04-01T06:57:01;5.87;;;3.80;;
18296;SDS011;18066;52.106;5.534;2023-04-01T06:59:34;6.00;;;3.70;;
18296;SDS011;18066;52.106;5.534;2023-04-01T07:02:04;5.60;;;3.63;;
18296;SDS011;18066;52.106;5.534;2023-04-01T07:04:43;6.27;;;3.77;;
18296;SDS011;18066;52.106;5.534;2023-04-01T07:07:14;5.00;;;3.50;;
18296;SDS011;18066;52.106;5.534;2023-04-01T07:09:48;4.10;;;2.83;;
18296;SDS011;18066;52.106;5.534;2023-04-01T07:12:21;4.10;;;2.03;;
18296;SDS011;18066;52.106;5.534;2023-04-01T07:14:55;3.70;;;2.27;;
18296;SDS011;18066;52.106;5.534;2023-04-01T07:17:25;3.53;;;2.00;;
18296;SDS011;18066;52.106;5.534;2023-04-01T07:19:56;3.07;;;1.80;;
18296;SDS011;18066;52.106;5.534;2023-04-01T07:22:29;1.73;;;1.37;;
18296;SDS011;18066;52.106;5.534;2023-04-01T07:24:59;1.87;;;1.57;;
18296;SDS011;18066;52.106;5.534;2023-04-01T07:27:32;2.30;;;1.53;;
18296;SDS011;18066;52.106;5.534;2023-04-01T07:30:00;2.50;;;1.60;;
18296;SDS011;18066;52.106;5.534;2023-04-01T07:32:31;3.10;;;2.43;;
18296;SDS011;18066;52.106;5.534;2023-04-01T07:35:12;3.07;;;2.00;;
18296;SDS011;18066;52.106;5.534;2023-04-01T07:37:50;4.43;;;3.07;;
18296;SDS011;18066;52.106;5.534;2023-04-01T07:40:30;3.33;;;2.30;;
18296;SDS011;18066;52.106;5.534;2023-04-01T07:43:15;3.80;;;2.70;;
18296;SDS011;18066;52.106;5.534;2023-04-01T07:45:50;4.10;;;2.90;;
18296;SDS011;18066;52.106;5.534;2023-04-01T07:48:25;3.57;;;2.70;;
18296;SDS011;18066;52.106;5.534;2023-04-01T07:50:59;5.40;;;2.93;;
18296;SDS011;18066;52.106;5.534;2023-04-01T07:53:31;4.50;;;3.30;;
18296;SDS011;18066;52.106;5.534;2023-04-01T07:56:05;4.80;;;3.30;;
18296;SDS011;18066;52.106;5.534;2023-04-01T07:58:37;5.23;;;3.43;;
18296;SDS011;18066;52.106;5.534;2023-04-01T08:01:14;6.00;;;3.67;;
18296;SDS011;18066;52.106;5.534;2023-04-01T08:03:59;5.40;;;3.70;;
18296;SDS011;18066;52.106;5.534;2023-04-01T08:06:45;4.30;;;3.33;;
18296;SDS011;18066;52.106;5.534;2023-04-01T08:09:17;5.20;;;3.67;;
18296;SDS011;18066;52.106;5.534;2023-04-01T08:12:00;5.63;;;4.00;;
18296;SDS011;18066;52.106;5.534;2023-04-01T08:14:41;5.43;;;4.00;;
18296;SDS011;18066;52.106;5.534;2023-04-01T08:17:17;7.53;;;4.33;;
18296;SDS011;18066;52.106;5.534;2023-04-01T08:19:55;6.40;;;4.03;;
18296;SDS011;18066;52.106;5.534;2023-04-01T08:22:32;8.27;;;4.13;;
18296;SDS011;18066;52.106;5.534;2023-04-01T08:25:04;7.00;;;5.03;;
18296;SDS011;18066;52.106;5.534;2023-04-01T08:27:37;6.67;;;4.60;;
18296;SDS011;18066;52.106;5.534;2023-04-01T08:30:16;7.77;;;4.60;;
18296;SDS011;18066;52.106;5.534;2023-04-01T08:32:46;6.40;;;4.13;;
18296;SDS011;18066;52.106;5.534;2023-04-01T08:35:18;6.10;;;4.23;;
18296;SDS011;18066;52.106;5.534;2023-04-01T08:37:52;8.37;;;5.13;;
18296;SDS011;18066;52.106;5.534;2023-04-01T08:43:21;7.40;;;5.00;;
18296;SDS011;18066;52.106;5.534;2023-04-01T08:46:10;9.00;;;4.90;;
18296;SDS011;18066;52.106;5.534;2023-04-01T08:48:48;7.50;;;4.63;;
18296;SDS011;18066;52.106;5.534;2023-04-01T08:57:12;8.77;;;6.53;;
18296;SDS011;18066;52.106;5.534;2023-04-01T08:59:50;9.70;;;6.17;;
18296;SDS011;18066;52.106;5.534;2023-04-01T09:05:42;9.47;;;6.63;;
18296;SDS011;18066;52.106;5.534;2023-04-01T09:08:29;9.53;;;6.80;;
18296;SDS011;18066;52.106;5.534;2023-04-01T09:11:12;9.27;;;6.43;;
18296;SDS011;18066;52.106;5.534;2023-04-01T09:16:57;12.43;;;5.93;;
18296;SDS011;18066;52.106;5.534;2023-04-01T09:22:54;12.37;;;7.50;;
18296;SDS011;18066;52.106;5.534;2023-04-01T09:25:46;9.67;;;6.03;;
18296;SDS011;18066;52.106;5.534;2023-04-01T09:28:26;7.93;;;6.13;;
18296;SDS011;18066;52.106;5.534;2023-04-01T09:34:11;10.23;;;6.93;;
18296;SDS011;18066;52.106;5.534;2023-04-01T09:36:55;10.50;;;6.80;;
18296;SDS011;18066;52.106;5.534;2023-04-01T09:39:35;10.73;;;6.63;;
18296;SDS011;18066;52.106;5.534;2023-04-01T09:42:11;10.73;;;6.63;;
18296;SDS011;18066;52.106;5.534;2023-04-01T09:44:48;9.57;;;6.60;;
18296;SDS011;18066;52.106;5.534;2023-04-01T09:47:27;10.77;;;7.67;;
18296;SDS011;18066;52.106;5.534;2023-04-01T09:50:17;8.87;;;6.33;;
18296;SDS011;18066;52.106;5.534;2023-04-01T09:52:55;10.70;;;6.50;;
18296;SDS011;18066;52.106;5.534;2023-04-01T10:01:54;10.05;;;6.53;;
18296;SDS011;18066;52.106;5.534;2023-04-01T10:05:04;10.90;;;6.60;;
18296;SDS011;18066;52.106;5.534;2023-04-01T10:14:05;8.77;;;6.47;;
18296;SDS011;18066;52.106;5.534;2023-04-01T10:16:58;8.63;;;6.30;;
18296;SDS011;18066;52.106;5.534;2023-04-01T10:26:10;8.70;;;6.70;;
18296;SDS011;18066;52.106;5.534;2023-04-01T10:29:00;6.00;;;5.03;;
18296;SDS011;18066;52.106;5.534;2023-04-01T10:31:56;5.53;;;4.50;;
18296;SDS011;18066;52.106;5.534;2023-04-01T10:34:54;5.53;;;4.57;;
18296;SDS011;18066;52.106;5.534;2023-04-01T10:37:46;5.63;;;4.73;;
18296;SDS011;18066;52.106;5.534;2023-04-01T10:40:35;4.47;;;3.92;;
18296;SDS011;18066;52.106;5.534;2023-04-01T10:43:19;4.90;;;4.28;;
18296;SDS011;18066;52.106;5.534;2023-04-01T10:46:11;5.97;;;4.50;;
18296;SDS011;18066;52.106;5.534;2023-04-01T10:49:10;5.23;;;3.83;;
18296;SDS011;18066;52.106;5.534;2023-04-01T10:52:13;6.25;;;4.10;;
18296;SDS011;18066;52.106;5.534;2023-04-01T10:55:05;5.68;;;3.65;;
18296;SDS011;18066;52.106;5.534;2023-04-01T10:57:59;4.70;;;3.75;;
18296;SDS011;18066;52.106;5.534;2023-04-01T11:01:00;5.22;;;3.80;;
18296;SDS011;18066;52.106;5.534;2023-04-01T11:10:09;4.47;;;3.70;;
18296;SDS011;18066;52.106;5.534;2023-04-01T11:19:27;7.85;;;4.40;;
18296;SDS011;18066;52.106;5.534;2023-04-01T11:22:24;2.07;;;1.87;;
18296;SDS011;18066;52.106;5.534;2023-04-01T11:25:04;2.70;;;1.93;;
18296;SDS011;18066;52.106;5.534;2023-04-01T11:27:55;3.50;;;1.80;;
18296;SDS011;18066;52.106;5.534;2023-04-01T11:30:49;2.87;;;2.10;;
18296;SDS011;18066;52.106;5.534;2023-04-01T11:33:36;2.73;;;2.20;;
18296;SDS011;18066;52.106;5.534;2023-04-01T11:36:09;3.60;;;1.70;;
18296;SDS011;18066;52.106;5.534;2023-04-01T11:38:53;2.03;;;1.70;;
18296;SDS011;18066;52.106;5.534;2023-04-01T11:41:31;2.50;;;1.50;;
18296;SDS011;18066;52.106;5.534;2023-04-01T11:44:09;2.00;;;1.70;;
18296;SDS011;18066;52.106;5.534;2023-04-01T11:46:44;1.57;;;1.37;;
18296;SDS011;18066;52.106;5.534;2023-04-01T11:49:32;1.80;;;1.60;;
18296;SDS011;18066;52.106;5.534;2023-04-01T11:52:20;1.70;;;1.60;;
18296;SDS011;18066;52.106;5.534;2023-04-01T11:54:59;2.17;;;1.70;;
18296;SDS011;18066;52.106;5.534;2023-04-01T11:57:48;1.87;;;1.77;;
18296;SDS011;18066;52.106;5.534;2023-04-01T12:00:27;2.53;;;1.57;;
18296;SDS011;18066;52.106;5.534;2023-04-01T12:03:18;1.97;;;1.70;;
18296;SDS011;18066;52.106;5.534;2023-04-01T12:06:02;1.93;;;1.70;;
18296;SDS011;18066;52.106;5.534;2023-04-01T12:08:37;258.58;;;14.00;;
18296;SDS011;18066;52.106;5.534;2023-04-01T12:11:12;3.78;;;2.85;;
18296;SDS011;18066;52.106;5.534;2023-04-01T12:13:45;19.83;;;9.18;;
18296;SDS011;18066;52.106;5.534;2023-04-01T12:16:23;11.40;;;10.50;;
18296;SDS011;18066;52.106;5.534;2023-04-01T12:19:09;6.13;;;3.27;;
18296;SDS011;18066;52.106;5.534;2023-04-01T12:21:47;200.60;;;21.42;;
18296;SDS011;18066;52.106;5.534;2023-04-01T12:24:29;3.00;;;2.70;;
18296;SDS011;18066;52.106;5.534;2023-04-01T12:30:22;7.25;;;5.05;;
18296;SDS011;18066;52.106;5.534;2023-04-01T12:33:02;188.30;;;12.90;;
18296;SDS011;18066;52.106;5.534;2023-04-01T12:35:55;3.75;;;2.95;;
18296;SDS011;18066;52.106;5.534;2023-04-01T12:38:38;4.85;;;3.72;;
18296;SDS011;18066;52.106;5.534;2023-04-01T12:41:18;6.18;;;4.47;;
18296;SDS011;18066;52.106;5.534;2023-04-01T12:44:02;8.07;;;5.47;;
18296;SDS011;18066;52.106;5.534;2023-04-01T12:46:56;8.50;;;5.50;;
18296;SDS011;18066;52.106;5.534;2023-04-01T12:49:48;7.60;;;6.03;;
18296;SDS011;18066;52.106;5.534;2023-04-01T12:52:25;10.95;;;7.78;;
18296;SDS011;18066;52.106;5.534;2023-04-01T12:55:24;6.78;;;5.57;;
18296;SDS011;18066;52.106;5.534;2023-04-01T12:58:18;7.80;;;5.85;;
18296;SDS011;18066;52.106;5.534;2023-04-01T13:01:16;8.00;;;5.82;;
18296;SDS011;18066;52.106;5.534;2023-04-01T13:07:01;6.65;;;5.13;;
18296;SDS011;18066;52.106;5.534;2023-04-01T13:09:45;7.90;;;6.00;;
18296;SDS011;18066;52.106;5.534;2023-04-01T13:12:29;9.57;;;6.47;;
18296;SDS011;18066;52.106;5.534;2023-04-01T13:15:23;9.93;;;7.03;;
18296;SDS011;18066;52.106;5.534;2023-04-01T13:18:04;8.32;;;5.82;;
18296;SDS011;18066;52.106;5.534;2023-04-01T13:20:43;7.82;;;6.13;;
18296;SDS011;18066;52.106;5.534;2023-04-01T13:23:19;10.55;;;6.60;;
18296;SDS011;18066;52.106;5.534;2023-04-01T13:26:00;8.35;;;6.13;;
18296;SDS011;18066;52.106;5.534;2023-04-01T13:28:37;6.63;;;5.47;;
18296;SDS011;18066;52.106;5.534;2023-04-01T13:31:07;8.00;;;4.45;;
18296;SDS011;18066;52.106;5.534;2023-04-01T13:33:45;6.50;;;4.70;;
18296;SDS011;18066;52.106;5.534;2023-04-01T13:36:19;5.83;;;3.97;;
18296;SDS011;18066;52.106;5.534;2023-04-01T13:39:05;4.77;;;3.47;;
18296;SDS011;18066;52.106;5.534;2023-04-01T13:42:00;3.63;;;2.90;;
18296;SDS011;18066;52.106;5.534;2023-04-01T13:44:40;4.37;;;3.30;;
18296;SDS011;18066;52.106;5.534;2023-04-01T13:47:24;4.13;;;3.30;;
18296;SDS011;18066;52.106;5.534;2023-04-01T13:50:07;4.30;;;3.33;;
18296;SDS011;18066;52.106;5.534;2023-04-01T13:53:18;4.60;;;3.53;;
18296;SDS011;18066;52.106;5.534;2023-04-01T13:58:58;4.25;;;3.80;;
18296;SDS011;18066;52.106;5.534;2023-04-01T14:01:49;4.70;;;3.70;;
18296;SDS011;18066;52.106;5.534;2023-04-01T14:04:31;4.50;;;3.57;;
18296;SDS011;18066;52.106;5.534;2023-04-01T14:07:12;5.90;;;3.20;;
18296;SDS011;18066;52.106;5.534;2023-04-01T14:09:59;5.53;;;3.83;;
18296;SDS011;18066;52.106;5.534;2023-04-01T14:12:35;11.23;;;4.45;;
18296;SDS011;18066;52.106;5.534;2023-04-01T14:15:18;4.77;;;3.83;;
18296;SDS011;18066;52.106;5.534;2023-04-01T14:17:56;5.67;;;3.70;;
18296;SDS011;18066;52.106;5.534;2023-04-01T14:20:38;6.50;;;4.13;;
18296;SDS011;18066;52.106;5.534;2023-04-01T14:23:17;7.07;;;4.23;;
18296;SDS011;18066;52.106;5.534;2023-04-01T14:26:17;4.90;;;3.80;;
18296;SDS011;18066;52.106;5.534;2023-04-01T14:29:01;4.90;;;3.77;;
18296;SDS011;18066;52.106;5.534;2023-04-01T14:31:42;4.93;;;4.17;;
18296;SDS011;18066;52.106;5.534;2023-04-01T14:34:21;5.77;;;4.40;;
18296;SDS011;18066;52.106;5.534;2023-04-01T14:36:59;6.18;;;5.15;;
18296;SDS011;18066;52.106;5.534;2023-04-01T14:39:48;5.07;;;4.07;;
18296;SDS011;18066;52.106;5.534;2023-04-01T14:42:40;6.23;;;4.03;;
18296;SDS011;18066;52.106;5.534;2023-04-01T14:45:40;5.40;;;4.30;;
18296;SDS011;18066;52.106;5.534;2023-04-01T14:48:17;6.67;;;4.60;;
18296;SDS011;18066;52.106;5.534;2023-04-01T14:50:53;6.85;;;5.07;;
18296;SDS011;18066;52.106;5.534;2023-04-01T14:53:26;7.17;;;5.43;;
18296;SDS011;18066;52.106;5.534;2023-04-01T14:55:54;6.83;;;4.73;;
18296;SDS011;18066;52.106;5.534;2023-04-01T14:58:23;5.47;;;4.40;;
18296;SDS011;18066;52.106;5.534;2023-04-01T15:00:57;4.83;;;3.93;;
18296;SDS011;18066;52.106;5.534;2023-04-01T15:03:33;8.97;;;4.50;;
18296;SDS011;18066;52.106;5.534;2023-04-01T15:06:24;6.60;;;5.47;;
18296;SDS011;18066;52.106;5.534;2023-04-01T15:09:02;5.33;;;4.37;;
18296;SDS011;18066;52.106;5.534;2023-04-01T15:11:37;5.43;;;4.10;;
18296;SDS011;18066;52.106;5.534;2023-04-01T15:14:26;6.70;;;4.43;;
18296;SDS011;18066;52.106;5.534;2023-04-01T15:17:20;5.83;;;4.77;;
18296;SDS011;18066;52.106;5.534;2023-04-01T15:20:00;5.93;;;5.30;;
18296;SDS011;18066;52.106;5.534;2023-04-01T15:22:49;6.33;;;4.50;;
18296;SDS011;18066;52.106;5.534;2023-04-01T15:25:35;5.73;;;4.37;;
18296;SDS011;18066;52.106;5.534;2023-04-01T15:28:14;4.73;;;3.77;;
18296;SDS011;18066;52.106;5.534;2023-04-01T15:30:52;5.60;;;4.37;;
18296;SDS011;18066;52.106;5.534;2023-04-01T15:36:15;4.80;;;3.40;;
18296;SDS011;18066;52.106;5.534;2023-04-01T15:38:54;4.00;;;3.07;;
18296;SDS011;18066;52.106;5.534;2023-04-01T15:41:29;3.43;;;3.13;;
18296;SDS011;18066;52.106;5.534;2023-04-01T15:44:24;3.43;;;3.13;;
18296;SDS011;18066;52.106;5.534;2023-04-01T15:47:03;3.90;;;3.00;;
18296;SDS011;18066;52.106;5.534;2023-04-01T15:49:45;4.60;;;3.47;;
18296;SDS011;18066;52.106;5.534;2023-04-01T15:52:17;3.70;;;2.97;;
18296;SDS011;18066;52.106;5.534;2023-04-01T15:54:56;3.60;;;3.17;;
18296;SDS011;18066;52.106;5.534;2023-04-01T15:57:32;4.10;;;3.17;;
18296;SDS011;18066;52.106;5.534;2023-04-01T16:00:19;3.40;;;3.00;;
18296;SDS011;18066;52.106;5.534;2023-04-01T16:03:08;4.20;;;3.63;;
18296;SDS011;18066;52.106;5.534;2023-04-01T16:05:42;5.50;;;4.38;;
18296;SDS011;18066;52.106;5.534;2023-04-01T16:11:22;5.00;;;4.03;;
18296;SDS011;18066;52.106;5.534;2023-04-01T16:13:58;5.07;;;3.77;;
18296;SDS011;18066;52.106;5.534;2023-04-01T16:16:37;6.63;;;3.97;;
18296;SDS011;18066;52.106;5.534;2023-04-01T16:19:18;4.97;;;4.20;;
18296;SDS011;18066;52.106;5.534;2023-04-01T16:22:02;4.47;;;3.77;;
18296;SDS011;18066;52.106;5.534;2023-04-01T16:24:34;4.30;;;3.50;;
18296;SDS011;18066;52.106;5.534;2023-04-01T16:27:09;4.80;;;3.60;;
18296;SDS011;18066;52.106;5.534;2023-04-01T16:29:43;5.80;;;3.27;;
18296;SDS011;18066;52.106;5.534;2023-04-01T16:32:21;5.20;;;4.67;;
18296;SDS011;18066;52.106;5.534;2023-04-01T16:35:01;7.27;;;4.13;;
18296;SDS011;18066;52.106;5.534;2023-04-01T16:37:43;4.33;;;3.70;;
18296;SDS011;18066;52.106;5.534;2023-04-01T16:40:16;4.53;;;3.80;;
18296;SDS011;18066;52.106;5.534;2023-04-01T16:42:53;4.60;;;3.73;;
18296;SDS011;18066;52.106;5.534;2023-04-01T16:45:32;4.70;;;4.20;;